ZPPP/KMG METAR and TAF weather

Enter ICAO airport designator
Station Type Date Time Source
ZPPP METAR 2018/12/17 17:00 UTC NOAA

ZPPP 171700Z 06002MPS 2500 BR FEW005 SCT026 OVC030 08/08 Q1026 NOSIG


Station Type Date Time Source
ZPPP Decoded METAR 2018/12/17 17:00 UTC NOAA

Kunming, China (ZPPP) 25-01N 102-41E 1892M
Dec 17, 2018 - 12:00 PM EST / 2018.12.17 1700 UTC
Wind: from the ENE (060 degrees) at 4 MPH (4 KT):0
Visibility: 1 mile(s):0
Sky conditions: overcast
Weather: mist
Temperature: 46 F (8 C)
Dew Point: 46 F (8 C)
Relative Humidity: 100%
Pressure (altimeter): 30.30 in. Hg (1026 hPa)
ob: ZPPP 171700Z 06002MPS 2500 BR FEW005 SCT026 OVC030 08/08 Q1026 NOSIG
cycle: 17

Station Type Date Time Source
ZPPP TAF 2018/12/17 18:03 UTC NOAA

TAF ZPPP 171309Z 1718/1818 22005MPS 4000 BR FEW003 SCT020 BKN033 TX16/1808Z TN06/1723Z


Example: see airport list